Home   Weather   Georgia   Rustavi   Past weeks
Flag for Georgia

Past Weather in Rustavi, Georgia — Yesterday and Last 2 Weeks

Currently: 41 °F. Passing clouds. (Weather station: Tbilisi, Georgia). See more current weather

Past Weather in Rustavi — Graph

°F

Rustavi Temperature Yesterday

Maximum temperature yesterday: 46 °F (at 1:30 pm)
Minimum temperature yesterday: 34 °F (at 10:30 pm)
Average temperature yesterday: 40 °F

High & Low Weather Summary for the Past Weeks

 TemperatureHumidityPressure
High52 °F (Jan 30, 3:00 pm)100% (Jan 25, 6:00 am)30.57 "Hg (Jan 25, 6:00 am)
Low21 °F (Jan 27, 6:00 am)39% (Feb 3, 3:30 pm)29.74 "Hg (Feb 1, 3:00 pm)
Average36 °F75%30.18 "Hg
* Reported Jan 20 1:00 pm — Feb 4 12:30 pm, Rustavi. Weather by CustomWeather, © 2023

Note: Actual official high and low records may vary slightly from our data, if they occured in-between our weather recording intervals... More about our weather records

Rustavi Weather History for the Previous 24 Hours

Scroll right to see more
 ConditionsComfort  
Time TempWeatherWind HumidityBarometerVisibility
12:30 pm
Sat, Feb 4
41 °FPassing clouds.6 mph42%30.09 "HgN/A
12:00 pm39 °FSunny.8 mph48%30.09 "Hg10 mi
11:30 am37 °FSunny.8 mph52%30.09 "Hg10 mi
11:00 am36 °FSunny.10 mph56%30.09 "Hg10 mi
10:00 am34 °FSunny.8 mph65%30.12 "Hg10 mi
9:30 am30 °FSunny.13 mph75%30.12 "Hg10 mi
9:00 am28 °FSunny.10 mph80%30.12 "Hg10 mi
8:30 am27 °FSunny.12 mph86%30.12 "Hg10 mi
8:00 am25 °FClear.9 mph86%30.12 "Hg10 mi
7:30 am27 °FClear.9 mph86%30.12 "Hg10 mi
7:00 am27 °FClear.10 mph86%30.12 "Hg10 mi
6:30 am27 °FClear.7 mph86%30.12 "Hg10 mi
6:00 am28 °FClear.6 mph80%30.12 "Hg10 mi
5:30 am28 °FClear.7 mph80%30.12 "Hg10 mi
5:00 am28 °FClear.6 mph80%30.12 "Hg10 mi
3:30 am32 °FPassing clouds.5 mph75%30.12 "HgN/A
3:00 am30 °FPassing clouds.5 mph80%30.12 "HgN/A
2:30 am30 °FClear.10 mph80%30.09 "Hg10 mi
2:00 am32 °FClear.10 mph75%30.09 "Hg10 mi
1:30 am34 °FClear.9 mph70%30.12 "Hg10 mi
1:00 am34 °FClear.9 mph70%30.12 "Hg10 mi
12:30 am36 °FClear.14 mph65%30.09 "Hg10 mi
12:00 am34 °FClear.14 mph70%30.09 "Hg10 mi
11:30 pm
Fri, Feb 3
34 °FClear.12 mph70%30.09 "Hg10 mi
11:00 pm34 °FClear.14 mph70%30.09 "Hg10 mi
10:30 pm34 °FClear.10 mph70%30.09 "Hg10 mi
10:00 pm36 °FClear.10 mph65%30.09 "Hg10 mi
9:30 pm36 °FClear.13 mph65%30.09 "Hg10 mi
9:00 pm36 °FClear.8 mph65%30.09 "Hg10 mi
8:00 pm39 °FClear.15 mph56%30.07 "Hg10 mi
7:30 pm41 °FClear.18 mph53%30.07 "Hg10 mi
7:00 pm41 °FClear.18 mph49%30.07 "Hg10 mi
6:30 pm41 °FClear.14 mph49%30.07 "Hg10 mi
6:00 pm43 °FSunny.21 mph46%30.04 "Hg10 mi
5:30 pm43 °FSunny.22 mph39%30.04 "Hg10 mi
5:00 pm43 °FSunny.23 mph39%30.04 "Hg10 mi
4:30 pm45 °FSunny.18 mph39%30.04 "Hg10 mi
4:00 pm45 °FSunny.22 mph39%30.04 "Hg10 mi
3:30 pm45 °FSunny.23 mph39%30.04 "Hg10 mi
3:00 pm46 °FPassing clouds.17 mph40%30.04 "HgN/A
2:00 pm45 °FPassing clouds.22 mph46%30.04 "HgN/A
1:30 pm46 °FPassing clouds.24 mph43%30.04 "HgN/A
1:00 pm45 °FPassing clouds.22 mph46%30.04 "HgN/A
Weather by CustomWeather, © 2023

See weather overview